createdAt,value
2018-02-17T00:01:56.218Z,80.69
2018-02-17T00:04:24.535Z,80.59
2018-02-17T00:06:52.883Z,80.56
2018-02-17T00:09:21.202Z,80.46
2018-02-17T00:11:49.546Z,80.53
2018-02-17T00:14:17.893Z,80.53
2018-02-17T00:16:46.302Z,80.53
2018-02-17T00:19:14.646Z,80.48
2018-02-17T00:21:43.059Z,80.40
2018-02-17T00:24:11.403Z,80.38
2018-02-17T00:26:39.818Z,80.54
2018-02-17T00:29:08.162Z,80.42
2018-02-17T00:31:36.573Z,80.49
2018-02-17T00:34:04.914Z,80.70
2018-02-17T00:36:33.334Z,80.99
2018-02-17T00:39:01.714Z,81.04
2018-02-17T00:41:30.134Z,80.87
2018-02-17T00:43:58.574Z,80.87
2018-02-17T00:46:26.894Z,81.00
2018-02-17T00:48:55.233Z,80.90
2018-02-17T00:51:23.658Z,80.73
2018-02-17T00:53:52.086Z,80.66
2018-02-17T00:56:20.405Z,80.69
2018-02-17T00:58:48.747Z,80.66
2018-02-17T01:01:17.070Z,80.82
2018-02-17T01:03:45.410Z,80.89
2018-02-17T01:06:13.730Z,80.93
2018-02-17T01:08:42.083Z,80.94
2018-02-17T01:11:10.402Z,80.85
2018-02-17T01:13:38.798Z,80.81
2018-02-17T01:16:07.190Z,80.95
2018-02-17T01:18:35.534Z,81.05
2018-02-17T01:21:03.942Z,81.14
2018-02-17T01:23:32.282Z,80.86
2018-02-17T01:26:00.601Z,80.73
2018-02-17T01:28:28.975Z,80.63
2018-02-17T01:30:57.293Z,80.54
2018-02-17T01:33:25.726Z,80.54
2018-02-17T01:35:54.054Z,80.48
2018-02-17T01:38:22.494Z,80.43
2018-02-17T01:40:50.820Z,80.48
2018-02-17T01:43:19.243Z,80.45
2018-02-17T01:45:47.931Z,80.42
2018-02-17T01:48:16.258Z,80.59
2018-02-17T01:50:44.583Z,80.71
2018-02-17T01:53:12.921Z,80.72
2018-02-17T01:55:41.241Z,80.72
2018-02-17T01:58:09.588Z,80.80
2018-02-17T02:00:37.907Z,81.09
2018-02-17T02:03:06.266Z,81.28
2018-02-17T02:05:34.642Z,81.32
2018-02-17T02:08:02.982Z,81.53
2018-02-17T02:10:31.403Z,81.85
2018-02-17T02:12:59.750Z,82.35
2018-02-17T02:15:28.154Z,82.59
2018-02-17T02:17:56.474Z,82.72
2018-02-17T02:20:24.814Z,82.75
2018-02-17T02:22:53.135Z,82.66
2018-02-17T02:25:21.473Z,82.23
2018-02-17T02:27:49.786Z,81.96
2018-02-17T02:30:18.214Z,81.65
2018-02-17T02:32:46.605Z,81.58
2018-02-17T02:35:14.970Z,81.51
2018-02-17T02:37:43.286Z,81.59
2018-02-17T02:40:11.725Z,81.62
2018-02-17T02:42:40.047Z,82.01
2018-02-17T02:45:08.391Z,82.28
2018-02-17T02:47:36.713Z,82.52
2018-02-17T02:50:05.129Z,82.61
2018-02-17T02:52:33.455Z,82.47
2018-02-17T02:55:01.798Z,82.42
2018-02-17T02:57:30.118Z,82.35
2018-02-17T02:59:58.543Z,82.33
2018-02-17T03:02:26.862Z,82.37
2018-02-17T03:04:55.294Z,82.32
2018-02-17T03:07:23.614Z,82.21
2018-02-17T03:09:52.045Z,82.01
2018-02-17T03:12:20.367Z,82.05
2018-02-17T03:14:48.798Z,82.00
2018-02-17T03:17:17.126Z,82.09
2018-02-17T03:19:45.466Z,82.54
2018-02-17T03:22:13.794Z,82.78
2018-02-17T03:24:42.134Z,82.88
2018-02-17T03:27:10.453Z,82.74
2018-02-17T03:29:38.862Z,82.58
2018-02-17T03:32:07.242Z,82.31
2018-02-17T03:34:35.621Z,82.31
2018-02-17T03:37:03.943Z,82.24
2018-02-17T03:39:32.378Z,82.15
2018-02-17T03:42:00.749Z,81.96
2018-02-17T03:44:29.089Z,81.99
2018-02-17T03:46:57.501Z,81.99
2018-02-17T03:49:25.883Z,81.90
2018-02-17T03:51:54.193Z,81.85
2018-02-17T03:54:22.630Z,81.61
2018-02-17T03:56:51.010Z,81.45
2018-02-17T03:59:19.385Z,81.16
2018-02-17T04:01:47.802Z,81.09
2018-02-17T04:04:16.241Z,81.07
2018-02-17T04:06:44.562Z,81.09
2018-02-17T04:09:12.997Z,81.37
2018-02-17T04:11:41.310Z,81.52
2018-02-17T04:14:09.749Z,81.53
2018-02-17T04:16:38.065Z,81.58
2018-02-17T04:19:06.402Z,81.52
2018-02-17T04:21:34.782Z,81.56
2018-02-17T04:24:03.094Z,81.67
2018-02-17T04:26:31.533Z,81.69
2018-02-17T04:28:59.850Z,81.89
2018-02-17T04:31:28.284Z,82.60
2018-02-17T04:33:56.666Z,84.44
2018-02-17T04:36:25.038Z,84.79
2018-02-17T04:38:53.358Z,84.71
2018-02-17T04:41:31.604Z,85.37
2018-02-17T04:43:59.918Z,85.78
2018-02-17T04:46:31.082Z,85.80
2018-02-17T04:49:05.003Z,86.12
2018-02-17T04:51:39.061Z,86.63
2018-02-17T04:54:09.849Z,87.08
2018-02-17T04:56:41.117Z,87.71
2018-02-17T04:59:15.878Z,87.98
2018-02-17T05:04:54.438Z,88.57
2018-02-17T05:07:33.566Z,88.73
2018-02-17T05:10:01.914Z,89.54
2018-02-17T05:12:30.242Z,90.05
2018-02-17T05:15:04.098Z,90.21
2018-02-17T05:17:37.966Z,90.04
2018-02-17T05:20:11.879Z,89.85
2018-02-17T05:25:51.862Z,88.72
2018-02-17T05:28:36.863Z,88.67
2018-02-17T05:31:05.198Z,88.51
2018-02-17T05:36:39.299Z,87.82
2018-02-17T05:39:07.637Z,87.79
2018-02-17T05:41:55.681Z,87.65
2018-02-17T05:47:45.018Z,86.67
2018-02-17T05:50:13.360Z,86.15
2018-02-17T05:52:41.675Z,85.76
2018-02-17T05:55:10.011Z,85.41
2018-02-17T05:57:38.330Z,85.07
2018-02-17T06:00:06.653Z,84.78
2018-02-17T06:02:34.989Z,84.54
2018-02-17T06:05:03.316Z,84.44
2018-02-17T06:07:31.650Z,84.46
2018-02-17T06:09:59.968Z,84.53
2018-02-17T06:12:28.306Z,84.52
2018-02-17T06:14:56.622Z,84.15
2018-02-17T06:17:24.966Z,83.79
2018-02-17T06:19:53.279Z,83.65
2018-02-17T06:22:21.618Z,84.33
2018-02-17T06:24:49.943Z,85.31
2018-02-17T06:27:18.290Z,85.99
2018-02-17T06:29:46.618Z,86.24
2018-02-17T06:32:14.967Z,86.49
2018-02-17T06:34:43.283Z,86.46
2018-02-17T06:37:11.628Z,86.39
2018-02-17T06:39:39.949Z,85.94
2018-02-17T06:42:08.303Z,85.61
2018-02-17T06:44:36.632Z,85.81
2018-02-17T06:47:04.982Z,86.05
2018-02-17T06:49:33.318Z,86.47
2018-02-17T06:52:01.662Z,86.61
2018-02-17T06:54:29.990Z,86.60
2018-02-17T06:56:58.388Z,86.65
2018-02-17T06:59:26.676Z,86.45
2018-02-17T07:01:55.022Z,86.18
2018-02-17T07:04:23.353Z,85.87
2018-02-17T07:06:51.685Z,85.41
2018-02-17T07:09:20.010Z,85.10
2018-02-17T07:11:48.350Z,84.90
2018-02-17T07:14:16.673Z,84.77
2018-02-17T07:16:45.006Z,84.62
2018-02-17T07:19:13.321Z,84.57
2018-02-17T07:21:41.662Z,84.43
2018-02-17T07:24:09.985Z,84.40
2018-02-17T07:26:38.330Z,84.33
2018-02-17T07:29:06.653Z,84.28
2018-02-17T07:31:34.997Z,84.22
2018-02-17T07:34:03.313Z,84.26
2018-02-17T07:36:31.658Z,84.57
2018-02-17T07:38:59.983Z,84.85
2018-02-17T07:41:28.336Z,85.03
2018-02-17T07:43:56.653Z,85.08
2018-02-17T07:46:24.998Z,85.25
2018-02-17T07:48:53.321Z,85.28
2018-02-17T07:51:21.670Z,85.42
2018-02-17T07:53:49.994Z,85.92
2018-02-17T07:56:18.342Z,86.35
2018-02-17T07:58:46.674Z,86.92
2018-02-17T08:01:14.994Z,87.31
2018-02-17T08:03:43.341Z,87.79
2018-02-17T08:06:11.665Z,87.92
2018-02-17T08:08:40.018Z,87.78
2018-02-17T08:11:08.341Z,87.78
2018-02-17T08:13:36.691Z,88.08
2018-02-17T08:16:05.009Z,88.70
2018-02-17T08:18:33.354Z,88.92
2018-02-17T08:21:01.683Z,88.96
2018-02-17T08:23:30.027Z,88.97
2018-02-17T08:25:58.356Z,89.00
2018-02-17T08:28:26.701Z,89.31
2018-02-17T08:30:55.034Z,89.74
2018-02-17T08:33:23.381Z,90.08
2018-02-17T08:35:51.722Z,90.33
2018-02-17T08:38:20.074Z,90.58
2018-02-17T08:40:48.403Z,90.93
2018-02-17T08:43:16.755Z,91.72
2018-02-17T08:45:45.087Z,91.78
2018-02-17T08:48:13.436Z,91.77
2018-02-17T08:50:41.758Z,91.70
2018-02-17T08:53:10.110Z,91.46
2018-02-17T08:55:38.437Z,91.20
2018-02-17T08:58:06.789Z,91.27
2018-02-17T09:00:35.132Z,91.71
2018-02-17T09:03:03.462Z,92.00
2018-02-17T09:05:31.795Z,91.89
2018-02-17T09:08:00.150Z,91.90
2018-02-17T09:10:40.434Z,91.75
2018-02-17T09:13:08.787Z,91.93
2018-02-17T09:15:37.114Z,91.61
2018-02-17T09:18:05.469Z,91.47
2018-02-17T09:20:33.798Z,91.32
2018-02-17T09:23:02.260Z,91.31
2018-02-17T09:25:30.589Z,91.54
2018-02-17T09:27:59.105Z,90.49
2018-02-17T09:30:27.430Z,89.21
2018-02-17T09:32:55.785Z,88.63
2018-02-17T09:35:24.111Z,88.17
2018-02-17T09:37:52.569Z,87.46
2018-02-17T09:40:20.889Z,87.05
2018-02-17T09:42:49.262Z,86.09
2018-02-17T09:45:17.593Z,85.82
2018-02-17T09:47:46.017Z,85.43
2018-02-17T09:50:14.355Z,84.83
2018-02-17T09:52:42.705Z,84.09
2018-02-17T09:55:11.034Z,83.25
2018-02-17T09:57:39.382Z,83.12
2018-02-17T10:00:07.810Z,83.32
2018-02-17T10:02:36.154Z,83.64
2018-02-17T10:05:04.484Z,84.13
2018-02-17T10:07:32.835Z,84.37
2018-02-17T10:10:01.329Z,84.72
2018-02-17T10:12:29.691Z,85.26
2018-02-17T10:14:58.046Z,86.73
2018-02-17T10:17:26.426Z,84.94
2018-02-17T10:19:54.782Z,85.22
2018-02-17T10:22:23.953Z,86.10
2018-02-17T10:24:52.399Z,86.35
2018-02-17T10:27:20.779Z,86.53
2018-02-17T10:29:49.137Z,86.87
2018-02-17T10:32:17.475Z,86.98
2018-02-17T10:34:45.830Z,87.50
2018-02-17T10:37:14.162Z,87.77
2018-02-17T10:39:42.562Z,87.70
2018-02-17T10:42:10.890Z,87.10
2018-02-17T10:44:39.314Z,87.39
2018-02-17T10:47:07.639Z,86.92
2018-02-17T10:49:36.126Z,87.24
2018-02-17T10:52:04.550Z,87.09
2018-02-17T10:54:33.478Z,87.25
2018-02-17T10:57:02.087Z,87.29
2018-02-17T10:59:30.489Z,87.26
2018-02-17T11:01:58.927Z,87.46
2018-02-17T11:04:27.307Z,87.87
2018-02-17T11:06:55.630Z,87.58
2018-02-17T11:09:24.471Z,87.24
2018-02-17T11:11:52.794Z,87.36
2018-02-17T11:14:21.634Z,87.70
2018-02-17T11:16:50.322Z,87.32
2018-02-17T11:19:19.466Z,87.19
2018-02-17T11:21:47.861Z,86.57
2018-02-17T11:24:16.384Z,86.38
2018-02-17T11:26:44.941Z,86.57
2018-02-17T11:29:13.291Z,85.90
2018-02-17T11:31:41.618Z,85.71
2018-02-17T11:34:10.442Z,85.45
2018-02-17T11:36:38.828Z,84.24
2018-02-17T11:39:07.190Z,84.89
2018-02-17T11:41:36.542Z,84.56
2018-02-17T11:44:04.978Z,83.83
2018-02-17T11:46:33.322Z,83.39
2018-02-17T11:49:01.676Z,83.56
2018-02-17T11:51:30.289Z,84.04
2018-02-17T11:54:00.746Z,83.25
2018-02-17T11:56:29.075Z,83.69
2018-02-17T11:58:57.426Z,83.31
2018-02-17T12:01:25.762Z,82.90
2018-02-17T12:03:54.142Z,83.28
2018-02-17T12:06:23.409Z,83.43
2018-02-17T12:08:51.833Z,82.98
2018-02-17T12:11:20.194Z,83.05
2018-02-17T12:13:48.542Z,82.71
2018-02-17T12:16:16.895Z,82.67
2018-02-17T12:18:45.242Z,82.31
2018-02-17T12:21:13.586Z,82.50
2018-02-17T12:23:41.981Z,81.79
2018-02-17T12:26:11.259Z,80.35
2018-02-17T12:28:39.659Z,80.74
2018-02-17T12:31:08.010Z,80.49
2018-02-17T12:33:36.406Z,80.88
2018-02-17T12:36:04.795Z,81.24
2018-02-17T12:38:33.125Z,80.76
2018-02-17T12:41:01.542Z,80.49
2018-02-17T12:43:30.485Z,81.13
2018-02-17T12:45:58.905Z,81.25
2018-02-17T12:48:27.234Z,80.88
2018-02-17T12:50:55.682Z,80.86
2018-02-17T12:53:24.036Z,81.13
2018-02-17T12:55:52.358Z,81.43
2018-02-17T12:58:20.686Z,81.05
2018-02-17T13:00:49.069Z,80.74
2018-02-17T13:03:17.453Z,80.94
2018-02-17T13:05:45.814Z,79.96
2018-02-17T13:08:14.209Z,79.91
2018-02-17T13:10:42.562Z,79.62
2018-02-17T13:13:10.887Z,79.74
2018-02-17T13:15:39.238Z,79.83
2018-02-17T13:18:07.674Z,79.15
2018-02-17T13:20:36.088Z,79.13
2018-02-17T13:23:05.086Z,78.74
2018-02-17T13:25:33.463Z,79.09
2018-02-17T13:28:01.790Z,78.66
2018-02-17T13:30:30.214Z,79.14
2018-02-17T13:32:58.596Z,78.15
2018-02-17T13:35:26.946Z,77.95
2018-02-17T13:37:55.347Z,78.72
2018-02-17T13:40:23.697Z,78.24
2018-02-17T13:42:52.546Z,78.43
2018-02-17T13:45:20.894Z,77.56
2018-02-17T13:47:49.227Z,77.60
2018-02-17T13:50:17.646Z,77.59
2018-02-17T13:52:45.974Z,77.45
2018-02-17T13:55:14.330Z,77.49
2018-02-17T13:57:42.670Z,77.32
2018-02-17T14:00:11.052Z,77.34
2018-02-17T14:02:40.291Z,77.87
2018-02-17T14:05:08.722Z,77.89
2018-02-17T14:07:37.073Z,77.96
2018-02-17T14:10:05.482Z,77.91
2018-02-17T14:12:33.815Z,78.30
2018-02-17T14:15:02.175Z,78.72
2018-02-17T14:17:30.503Z,78.80
2018-02-17T14:19:58.851Z,79.08
2018-02-17T14:22:27.194Z,79.58
2018-02-17T14:24:55.550Z,79.87
2018-02-17T14:27:23.886Z,79.36
2018-02-17T14:29:52.299Z,79.32
2018-02-17T14:32:20.726Z,79.29
2018-02-17T14:34:49.034Z,78.95
2018-02-17T14:37:17.425Z,78.91
2018-02-17T14:39:45.806Z,78.60
2018-02-17T14:42:14.183Z,78.54
2018-02-17T14:44:42.518Z,79.12
2018-02-17T14:47:10.871Z,78.55
2018-02-17T14:49:39.194Z,78.31
2018-02-17T14:52:07.546Z,78.76
2018-02-17T14:54:35.894Z,78.42
2018-02-17T14:57:04.290Z,78.19
2018-02-17T14:59:32.831Z,78.60
2018-02-17T15:02:01.214Z,78.52
2018-02-17T15:04:29.537Z,78.35
2018-02-17T15:06:57.886Z,78.39
2018-02-17T15:09:26.214Z,78.53
2018-02-17T15:11:54.743Z,78.55
2018-02-17T15:14:23.093Z,78.40
2018-02-17T15:16:51.719Z,78.67
2018-02-17T15:19:20.063Z,78.82
2018-02-17T15:21:48.477Z,79.28
2018-02-17T15:24:18.133Z,79.37
2018-02-17T15:26:46.643Z,79.40
2018-02-17T15:29:14.963Z,79.64
2018-02-17T15:31:43.310Z,79.81
2018-02-17T15:34:12.646Z,79.83
2018-02-17T15:36:40.994Z,79.77
2018-02-17T15:39:09.322Z,79.93
2018-02-17T15:41:38.358Z,79.89
2018-02-17T15:44:06.686Z,79.87
2018-02-17T15:46:35.080Z,80.30
2018-02-17T15:49:03.423Z,80.56
2018-02-17T15:51:31.864Z,80.65
2018-02-17T15:54:01.114Z,80.41
2018-02-17T15:56:29.458Z,80.67
2018-02-17T15:58:57.806Z,80.99
2018-02-17T16:01:26.150Z,80.94
2018-02-17T16:03:54.490Z,80.96
2018-02-17T16:06:22.842Z,80.77
2018-02-17T16:08:51.202Z,80.83
2018-02-17T16:11:19.549Z,80.83
2018-02-17T16:13:47.878Z,80.70
2018-02-17T16:16:16.224Z,81.12
2018-02-17T16:18:44.545Z,81.38
2018-02-17T16:21:12.911Z,81.45
2018-02-17T16:23:41.265Z,81.42
2018-02-17T16:26:09.617Z,81.45
2018-02-17T16:28:37.946Z,81.03
2018-02-17T16:31:06.310Z,81.47
2018-02-17T16:33:34.651Z,81.48
2018-02-17T16:36:02.986Z,81.44
2018-02-17T16:38:31.343Z,81.71
2018-02-17T16:41:00.629Z,81.63
2018-02-17T16:43:28.982Z,81.74
2018-02-17T16:45:57.320Z,82.18
2018-02-17T16:48:25.674Z,91.48
2018-02-17T16:50:54.011Z,79.62
2018-02-17T16:53:22.358Z,75.84
2018-02-17T16:55:50.688Z,76.58
2018-02-17T16:58:19.033Z,77.36
2018-02-17T17:00:47.542Z,78.08
2018-02-17T17:03:15.885Z,78.54
2018-02-17T17:05:44.218Z,79.17
2018-02-17T17:08:12.570Z,79.69
2018-02-17T17:10:40.899Z,80.39
2018-02-17T17:13:09.247Z,80.51
2018-02-17T17:15:37.573Z,80.56
2018-02-17T17:18:05.925Z,80.41
2018-02-17T17:20:35.173Z,80.00
2018-02-17T17:23:03.518Z,80.36
2018-02-17T17:25:31.857Z,80.80
2018-02-17T17:28:00.202Z,81.11
2018-02-17T17:30:28.533Z,81.06
2018-02-17T17:32:56.882Z,81.22
2018-02-17T17:35:25.230Z,81.01
2018-02-17T17:37:53.590Z,80.95
2018-02-17T17:40:21.918Z,81.07
2018-02-17T17:42:50.272Z,81.15
2018-02-17T17:45:18.602Z,81.18
2018-02-17T17:47:46.954Z,80.99
2018-02-17T17:50:15.592Z,80.76
2018-02-17T17:52:44.733Z,80.57
2018-02-17T17:55:13.081Z,80.38
2018-02-17T17:57:41.462Z,80.29
2018-02-17T18:00:09.886Z,80.12
2018-02-17T18:02:38.234Z,79.94
2018-02-17T18:05:06.643Z,80.51
2018-02-17T18:07:34.998Z,80.36
2018-02-17T18:10:03.326Z,80.30
2018-02-17T18:12:31.675Z,80.17
2018-02-17T18:15:00.003Z,79.75
2018-02-17T18:17:28.354Z,79.54
2018-02-17T18:19:56.682Z,79.97
2018-02-17T18:22:25.034Z,80.08
2018-02-17T18:24:53.357Z,80.04
2018-02-17T18:27:21.714Z,80.10
2018-02-17T18:29:50.043Z,80.17
2018-02-17T18:32:18.410Z,80.23
2018-02-17T18:34:46.730Z,80.28
2018-02-17T18:37:15.062Z,80.41
2018-02-17T18:39:43.898Z,80.66
2018-02-17T18:42:12.222Z,80.71
2018-02-17T18:44:40.578Z,80.89
2018-02-17T18:47:08.910Z,80.74
2018-02-17T18:49:37.302Z,81.81
2018-02-17T18:52:05.702Z,82.63
2018-02-17T18:54:34.062Z,92.28
2018-02-17T18:57:02.466Z,89.83
2018-02-17T18:59:31.110Z,78.46
2018-02-17T19:01:59.523Z,76.19
2018-02-17T19:04:27.878Z,76.00
2018-02-17T19:06:56.206Z,76.14
2018-02-17T19:09:24.555Z,76.38
2018-02-17T19:11:52.882Z,76.63
2018-02-17T19:14:21.878Z,77.14
2018-02-17T19:16:50.213Z,77.71
2018-02-17T19:19:18.673Z,77.63
2018-02-17T19:21:47.002Z,77.99
2018-02-17T19:24:15.432Z,78.55
2018-02-17T19:26:43.763Z,78.50
2018-02-17T19:29:12.183Z,79.49
2018-02-17T19:31:40.521Z,78.30
2018-02-17T19:34:08.875Z,77.16
2018-02-17T19:36:37.211Z,76.80
2018-02-17T19:39:07.027Z,76.73
2018-02-17T19:41:35.406Z,76.64
2018-02-17T19:44:03.784Z,76.75
2018-02-17T19:46:32.119Z,76.75
2018-02-17T19:49:00.478Z,76.91
2018-02-17T19:51:28.829Z,77.04
2018-02-17T19:53:57.292Z,76.96
2018-02-17T19:56:25.623Z,76.83
2018-02-17T19:58:54.050Z,76.91
2018-02-17T20:01:22.383Z,76.92
2018-02-17T20:03:50.801Z,77.23
2018-02-17T20:06:20.116Z,77.15
2018-02-17T20:08:50.128Z,76.96
2018-02-17T20:11:18.782Z,76.94
2018-02-17T20:13:47.171Z,77.07
2018-02-17T20:16:16.430Z,77.35
2018-02-17T20:18:44.899Z,77.71
2018-02-17T20:21:13.215Z,79.05
2018-02-17T20:23:41.610Z,79.81
2018-02-17T20:26:09.930Z,79.98
2018-02-17T20:28:38.399Z,79.54
2018-02-17T20:31:06.750Z,79.01
2018-02-17T20:33:35.136Z,78.49
2018-02-17T20:36:04.361Z,78.47
2018-02-17T20:38:32.722Z,80.54
2018-02-17T20:41:01.058Z,80.71
2018-02-17T20:43:29.431Z,80.58
2018-02-17T20:45:57.872Z,80.69
2018-02-17T20:48:26.355Z,81.24
2018-02-17T20:50:54.770Z,81.18
2018-02-17T20:53:42.312Z,81.12
2018-02-17T20:56:11.560Z,80.64
2018-02-17T20:58:39.931Z,79.66
2018-02-17T21:01:08.508Z,79.28
2018-02-17T21:03:37.866Z,79.36
2018-02-17T21:06:06.279Z,79.39
2018-02-17T21:08:34.662Z,79.35
2018-02-17T21:11:03.006Z,79.70
2018-02-17T21:13:31.414Z,80.30
2018-02-17T21:16:00.847Z,80.68
2018-02-17T21:18:29.327Z,80.62
2018-02-17T21:20:57.750Z,80.83
2018-02-17T21:23:26.142Z,81.12
2018-02-17T21:25:54.494Z,80.55
2018-02-17T21:28:22.827Z,81.89
2018-02-17T21:30:51.184Z,82.30
2018-02-17T21:33:19.546Z,82.00
2018-02-17T21:35:47.915Z,81.30
2018-02-17T21:38:16.242Z,80.74
2018-02-17T21:40:44.604Z,80.60
2018-02-17T21:43:12.983Z,80.95
2018-02-17T21:45:42.498Z,81.03
2018-02-17T21:48:10.865Z,80.78
2018-02-17T21:50:39.203Z,80.80
2018-02-17T21:53:07.538Z,80.82
2018-02-17T21:55:35.887Z,81.04
2018-02-17T21:58:04.247Z,81.86
2018-02-17T22:00:32.598Z,82.79
2018-02-17T22:03:00.932Z,82.67
2018-02-17T22:05:30.014Z,82.53
2018-02-17T22:07:58.340Z,81.81
2018-02-17T22:10:26.738Z,81.09
2018-02-17T22:12:55.879Z,80.70
2018-02-17T22:15:24.230Z,80.67
2018-02-17T22:17:52.571Z,80.98
2018-02-17T22:20:20.934Z,81.29
2018-02-17T22:22:49.265Z,81.62
2018-02-17T22:25:17.746Z,81.95
2018-02-17T22:27:46.078Z,82.34
2018-02-17T22:30:14.488Z,82.75
2018-02-17T22:32:42.806Z,82.75
2018-02-17T22:35:11.149Z,82.26
2018-02-17T22:37:39.633Z,82.24
2018-02-17T22:40:07.974Z,82.68
2018-02-17T22:42:36.306Z,82.52
2018-02-17T22:45:04.658Z,82.17
2018-02-17T22:47:32.990Z,81.83
2018-02-17T22:50:01.344Z,81.85
2018-02-17T22:52:29.668Z,82.28
2018-02-17T22:54:58.016Z,82.89
2018-02-17T22:57:26.378Z,83.79
2018-02-17T22:59:54.734Z,84.59
2018-02-17T23:02:23.058Z,85.21
2018-02-17T23:04:52.286Z,85.55
2018-02-17T23:07:20.619Z,85.53
2018-02-17T23:09:48.953Z,85.81
2018-02-17T23:12:17.314Z,86.06
2018-02-17T23:14:45.735Z,85.63
2018-02-17T23:17:14.090Z,84.96
2018-02-17T23:19:42.439Z,84.60
2018-02-17T23:22:10.776Z,84.36
2018-02-17T23:24:39.140Z,84.02
2018-02-17T23:27:07.467Z,83.12
2018-02-17T23:29:35.790Z,82.45
2018-02-17T23:32:04.134Z,82.36
2018-02-17T23:34:32.463Z,82.34
2018-02-17T23:37:00.810Z,82.63
2018-02-17T23:39:29.135Z,82.68
2018-02-17T23:41:57.477Z,82.74
2018-02-17T23:44:25.802Z,82.31
2018-02-17T23:46:54.146Z,81.81
2018-02-17T23:49:22.475Z,81.33
2018-02-17T23:51:50.877Z,81.13
2018-02-17T23:54:19.258Z,80.99
2018-02-17T23:56:47.635Z,80.82
2018-02-17T23:59:15.961Z,80.89
